sensor_id;sensor_type;location;lat;lon;timestamp;P1;durP1;ratioP1;P2;durP2;ratioP2
17283;SDS011;8760;52.248;20.952;2022-12-18T00:02:01;27.73;;;16.10;;
17283;SDS011;8760;52.248;20.952;2022-12-18T00:04:29;25.30;;;14.17;;
17283;SDS011;8760;52.248;20.952;2022-12-18T00:06:56;26.73;;;15.30;;
17283;SDS011;8760;52.248;20.952;2022-12-18T00:09:23;26.03;;;15.00;;
17283;SDS011;8760;52.248;20.952;2022-12-18T00:11:50;27.70;;;15.67;;
17283;SDS011;8760;52.248;20.952;2022-12-18T00:14:17;25.90;;;15.07;;
17283;SDS011;8760;52.248;20.952;2022-12-18T00:16:44;27.77;;;15.17;;
17283;SDS011;8760;52.248;20.952;2022-12-18T00:19:12;33.00;;;16.93;;
17283;SDS011;8760;52.248;20.952;2022-12-18T00:21:41;29.90;;;16.03;;
17283;SDS011;8760;52.248;20.952;2022-12-18T00:24:09;28.90;;;16.50;;
17283;SDS011;8760;52.248;20.952;2022-12-18T00:26:37;26.93;;;14.80;;
17283;SDS011;8760;52.248;20.952;2022-12-18T00:29:06;29.10;;;16.33;;
17283;SDS011;8760;52.248;20.952;2022-12-18T00:31:33;29.30;;;16.47;;
17283;SDS011;8760;52.248;20.952;2022-12-18T00:34:00;31.37;;;16.80;;
17283;SDS011;8760;52.248;20.952;2022-12-18T00:36:28;29.30;;;17.50;;
17283;SDS011;8760;52.248;20.952;2022-12-18T00:38:58;27.90;;;15.83;;
17283;SDS011;8760;52.248;20.952;2022-12-18T00:41:26;30.53;;;16.40;;
17283;SDS011;8760;52.248;20.952;2022-12-18T00:44:12;26.97;;;15.10;;
17283;SDS011;8760;52.248;20.952;2022-12-18T00:46:40;29.27;;;15.80;;
17283;SDS011;8760;52.248;20.952;2022-12-18T00:49:07;30.73;;;15.93;;
17283;SDS011;8760;52.248;20.952;2022-12-18T00:51:34;31.67;;;18.17;;
17283;SDS011;8760;52.248;20.952;2022-12-18T00:54:02;31.27;;;16.90;;
17283;SDS011;8760;52.248;20.952;2022-12-18T00:56:30;31.73;;;16.73;;
17283;SDS011;8760;52.248;20.952;2022-12-18T00:58:57;28.90;;;16.93;;
17283;SDS011;8760;52.248;20.952;2022-12-18T01:01:23;30.03;;;17.43;;
17283;SDS011;8760;52.248;20.952;2022-12-18T01:03:50;34.17;;;17.07;;
17283;SDS011;8760;52.248;20.952;2022-12-18T01:06:17;30.40;;;16.07;;
17283;SDS011;8760;52.248;20.952;2022-12-18T01:08:44;28.73;;;15.87;;
17283;SDS011;8760;52.248;20.952;2022-12-18T01:11:13;30.97;;;15.17;;
17283;SDS011;8760;52.248;20.952;2022-12-18T01:13:41;27.37;;;14.60;;
17283;SDS011;8760;52.248;20.952;2022-12-18T01:16:10;28.80;;;15.90;;
17283;SDS011;8760;52.248;20.952;2022-12-18T01:18:37;29.27;;;16.40;;
17283;SDS011;8760;52.248;20.952;2022-12-18T01:21:05;30.50;;;16.70;;
17283;SDS011;8760;52.248;20.952;2022-12-18T01:23:33;33.23;;;16.83;;
17283;SDS011;8760;52.248;20.952;2022-12-18T01:26:03;31.97;;;16.27;;
17283;SDS011;8760;52.248;20.952;2022-12-18T01:28:32;30.77;;;16.60;;
17283;SDS011;8760;52.248;20.952;2022-12-18T01:31:08;34.13;;;16.67;;
17283;SDS011;8760;52.248;20.952;2022-12-18T01:33:36;26.87;;;15.10;;
17283;SDS011;8760;52.248;20.952;2022-12-18T01:36:03;30.30;;;16.83;;
17283;SDS011;8760;52.248;20.952;2022-12-18T01:38:31;30.23;;;15.53;;
17283;SDS011;8760;52.248;20.952;2022-12-18T01:40:57;32.57;;;16.70;;
17283;SDS011;8760;52.248;20.952;2022-12-18T01:46:08;31.73;;;15.93;;
17283;SDS011;8760;52.248;20.952;2022-12-18T01:48:35;31.97;;;16.23;;
17283;SDS011;8760;52.248;20.952;2022-12-18T01:51:02;29.57;;;15.13;;
17283;SDS011;8760;52.248;20.952;2022-12-18T01:53:30;27.83;;;14.63;;
17283;SDS011;8760;52.248;20.952;2022-12-18T01:55:57;28.57;;;15.07;;
17283;SDS011;8760;52.248;20.952;2022-12-18T01:58:27;32.33;;;16.07;;
17283;SDS011;8760;52.248;20.952;2022-12-18T02:01:02;30.27;;;15.93;;
17283;SDS011;8760;52.248;20.952;2022-12-18T02:03:30;30.47;;;15.70;;
17283;SDS011;8760;52.248;20.952;2022-12-18T02:05:57;33.77;;;15.23;;
17283;SDS011;8760;52.248;20.952;2022-12-18T02:08:33;31.90;;;14.90;;
17283;SDS011;8760;52.248;20.952;2022-12-18T02:11:05;30.93;;;15.13;;
17283;SDS011;8760;52.248;20.952;2022-12-18T02:13:38;29.33;;;15.13;;
17283;SDS011;8760;52.248;20.952;2022-12-18T02:16:12;31.50;;;15.10;;
17283;SDS011;8760;52.248;20.952;2022-12-18T02:18:48;32.93;;;16.67;;
17283;SDS011;8760;52.248;20.952;2022-12-18T02:21:20;29.30;;;16.77;;
17283;SDS011;8760;52.248;20.952;2022-12-18T02:24:01;29.17;;;15.33;;
17283;SDS011;8760;52.248;20.952;2022-12-18T02:26:42;28.87;;;15.97;;
17283;SDS011;8760;52.248;20.952;2022-12-18T02:29:11;35.93;;;16.30;;
17283;SDS011;8760;52.248;20.952;2022-12-18T02:31:43;33.70;;;16.07;;
17283;SDS011;8760;52.248;20.952;2022-12-18T02:34:13;32.77;;;16.30;;
17283;SDS011;8760;52.248;20.952;2022-12-18T02:36:41;28.53;;;15.97;;
17283;SDS011;8760;52.248;20.952;2022-12-18T02:39:10;31.50;;;16.30;;
17283;SDS011;8760;52.248;20.952;2022-12-18T02:41:38;34.33;;;15.90;;
17283;SDS011;8760;52.248;20.952;2022-12-18T02:44:08;32.13;;;17.00;;
17283;SDS011;8760;52.248;20.952;2022-12-18T02:46:37;29.50;;;16.20;;
17283;SDS011;8760;52.248;20.952;2022-12-18T02:49:10;31.10;;;15.73;;
17283;SDS011;8760;52.248;20.952;2022-12-18T02:51:48;30.27;;;15.27;;
17283;SDS011;8760;52.248;20.952;2022-12-18T02:54:21;28.27;;;15.33;;
17283;SDS011;8760;52.248;20.952;2022-12-18T02:56:57;31.23;;;15.83;;
17283;SDS011;8760;52.248;20.952;2022-12-18T02:59:36;30.93;;;16.33;;
17283;SDS011;8760;52.248;20.952;2022-12-18T03:02:10;34.70;;;16.57;;
17283;SDS011;8760;52.248;20.952;2022-12-18T03:04:46;29.90;;;15.13;;
17283;SDS011;8760;52.248;20.952;2022-12-18T03:07:18;31.63;;;15.80;;
17283;SDS011;8760;52.248;20.952;2022-12-18T03:09:50;29.63;;;15.77;;
17283;SDS011;8760;52.248;20.952;2022-12-18T03:12:18;30.63;;;16.47;;
17283;SDS011;8760;52.248;20.952;2022-12-18T03:14:50;33.23;;;15.73;;
17283;SDS011;8760;52.248;20.952;2022-12-18T03:17:23;34.47;;;17.57;;
17283;SDS011;8760;52.248;20.952;2022-12-18T03:19:53;34.33;;;17.03;;
17283;SDS011;8760;52.248;20.952;2022-12-18T03:22:23;31.73;;;16.17;;
17283;SDS011;8760;52.248;20.952;2022-12-18T03:24:50;34.00;;;15.73;;
17283;SDS011;8760;52.248;20.952;2022-12-18T03:27:18;32.90;;;15.83;;
17283;SDS011;8760;52.248;20.952;2022-12-18T03:29:50;30.70;;;15.17;;
17283;SDS011;8760;52.248;20.952;2022-12-18T03:32:23;29.97;;;15.37;;
17283;SDS011;8760;52.248;20.952;2022-12-18T03:34:53;28.77;;;14.67;;
17283;SDS011;8760;52.248;20.952;2022-12-18T03:37:26;31.60;;;16.23;;
17283;SDS011;8760;52.248;20.952;2022-12-18T03:39:56;31.17;;;15.67;;
17283;SDS011;8760;52.248;20.952;2022-12-18T03:42:25;30.67;;;15.27;;
17283;SDS011;8760;52.248;20.952;2022-12-18T03:44:57;31.63;;;15.20;;
17283;SDS011;8760;52.248;20.952;2022-12-18T03:47:28;31.00;;;15.23;;
17283;SDS011;8760;52.248;20.952;2022-12-18T03:50:02;28.83;;;14.73;;
17283;SDS011;8760;52.248;20.952;2022-12-18T03:52:38;30.57;;;14.30;;
17283;SDS011;8760;52.248;20.952;2022-12-18T03:55:09;29.40;;;14.63;;
17283;SDS011;8760;52.248;20.952;2022-12-18T03:57:37;30.00;;;14.70;;
17283;SDS011;8760;52.248;20.952;2022-12-18T04:00:07;28.50;;;14.77;;
17283;SDS011;8760;52.248;20.952;2022-12-18T04:02:37;29.90;;;13.53;;
17283;SDS011;8760;52.248;20.952;2022-12-18T04:05:07;31.37;;;14.37;;
17283;SDS011;8760;52.248;20.952;2022-12-18T04:07:36;31.13;;;15.27;;
17283;SDS011;8760;52.248;20.952;2022-12-18T04:10:04;29.87;;;14.53;;
17283;SDS011;8760;52.248;20.952;2022-12-18T04:12:33;28.33;;;15.17;;
17283;SDS011;8760;52.248;20.952;2022-12-18T04:15:00;29.50;;;15.10;;
17283;SDS011;8760;52.248;20.952;2022-12-18T04:17:28;27.63;;;14.73;;
17283;SDS011;8760;52.248;20.952;2022-12-18T04:19:55;26.03;;;13.40;;
17283;SDS011;8760;52.248;20.952;2022-12-18T04:22:21;28.23;;;14.20;;
17283;SDS011;8760;52.248;20.952;2022-12-18T04:24:48;30.23;;;14.00;;
17283;SDS011;8760;52.248;20.952;2022-12-18T04:27:15;25.73;;;14.07;;
17283;SDS011;8760;52.248;20.952;2022-12-18T04:29:42;28.20;;;13.60;;
17283;SDS011;8760;52.248;20.952;2022-12-18T04:32:09;25.53;;;12.93;;
17283;SDS011;8760;52.248;20.952;2022-12-18T04:34:37;26.07;;;12.90;;
17283;SDS011;8760;52.248;20.952;2022-12-18T04:37:04;27.90;;;13.30;;
17283;SDS011;8760;52.248;20.952;2022-12-18T04:39:30;24.73;;;12.97;;
17283;SDS011;8760;52.248;20.952;2022-12-18T04:41:57;23.23;;;12.27;;
17283;SDS011;8760;52.248;20.952;2022-12-18T04:44:24;29.47;;;13.20;;
17283;SDS011;8760;52.248;20.952;2022-12-18T04:46:51;27.37;;;12.07;;
17283;SDS011;8760;52.248;20.952;2022-12-18T04:49:18;23.90;;;12.60;;
17283;SDS011;8760;52.248;20.952;2022-12-18T04:51:46;25.67;;;12.97;;
17283;SDS011;8760;52.248;20.952;2022-12-18T04:54:12;27.30;;;12.67;;
17283;SDS011;8760;52.248;20.952;2022-12-18T04:56:39;24.77;;;12.90;;
17283;SDS011;8760;52.248;20.952;2022-12-18T04:59:06;22.97;;;11.87;;
17283;SDS011;8760;52.248;20.952;2022-12-18T05:01:33;26.93;;;13.73;;
17283;SDS011;8760;52.248;20.952;2022-12-18T05:04:00;28.67;;;13.57;;
17283;SDS011;8760;52.248;20.952;2022-12-18T05:06:26;25.23;;;13.10;;
17283;SDS011;8760;52.248;20.952;2022-12-18T05:08:55;27.63;;;13.57;;
17283;SDS011;8760;52.248;20.952;2022-12-18T05:11:21;25.77;;;13.27;;
17283;SDS011;8760;52.248;20.952;2022-12-18T05:13:48;26.10;;;12.50;;
17283;SDS011;8760;52.248;20.952;2022-12-18T05:16:15;27.10;;;13.83;;
17283;SDS011;8760;52.248;20.952;2022-12-18T05:18:42;29.83;;;13.50;;
17283;SDS011;8760;52.248;20.952;2022-12-18T05:21:09;29.73;;;13.43;;
17283;SDS011;8760;52.248;20.952;2022-12-18T05:23:36;29.83;;;13.47;;
17283;SDS011;8760;52.248;20.952;2022-12-18T05:26:05;32.10;;;14.60;;
17283;SDS011;8760;52.248;20.952;2022-12-18T05:28:34;29.50;;;13.97;;
17283;SDS011;8760;52.248;20.952;2022-12-18T05:31:02;36.97;;;15.10;;
17283;SDS011;8760;52.248;20.952;2022-12-18T05:33:30;32.63;;;15.27;;
17283;SDS011;8760;52.248;20.952;2022-12-18T05:35:58;34.57;;;14.63;;
17283;SDS011;8760;52.248;20.952;2022-12-18T05:38:31;36.53;;;15.77;;
17283;SDS011;8760;52.248;20.952;2022-12-18T05:40:59;34.03;;;15.50;;
17283;SDS011;8760;52.248;20.952;2022-12-18T05:43:27;35.27;;;15.13;;
17283;SDS011;8760;52.248;20.952;2022-12-18T05:45:54;37.50;;;15.63;;
17283;SDS011;8760;52.248;20.952;2022-12-18T05:48:21;37.57;;;15.97;;
17283;SDS011;8760;52.248;20.952;2022-12-18T05:50:49;39.60;;;15.67;;
17283;SDS011;8760;52.248;20.952;2022-12-18T05:53:17;35.57;;;15.43;;
17283;SDS011;8760;52.248;20.952;2022-12-18T05:55:46;32.47;;;16.47;;
17283;SDS011;8760;52.248;20.952;2022-12-18T05:58:13;36.73;;;17.03;;
17283;SDS011;8760;52.248;20.952;2022-12-18T06:00:43;36.40;;;16.07;;
17283;SDS011;8760;52.248;20.952;2022-12-18T06:03:12;37.13;;;16.40;;
17283;SDS011;8760;52.248;20.952;2022-12-18T06:05:40;40.63;;;16.77;;
17283;SDS011;8760;52.248;20.952;2022-12-18T06:08:08;39.60;;;16.87;;
17283;SDS011;8760;52.248;20.952;2022-12-18T06:10:35;36.60;;;17.03;;
17283;SDS011;8760;52.248;20.952;2022-12-18T06:13:03;37.83;;;17.53;;
17283;SDS011;8760;52.248;20.952;2022-12-18T06:15:31;40.40;;;17.67;;
17283;SDS011;8760;52.248;20.952;2022-12-18T06:18:01;45.90;;;18.00;;
17283;SDS011;8760;52.248;20.952;2022-12-18T06:20:28;46.83;;;19.13;;
17283;SDS011;8760;52.248;20.952;2022-12-18T06:22:56;38.40;;;17.67;;
17283;SDS011;8760;52.248;20.952;2022-12-18T06:25:23;37.37;;;16.90;;
17283;SDS011;8760;52.248;20.952;2022-12-18T06:27:49;41.33;;;18.43;;
17283;SDS011;8760;52.248;20.952;2022-12-18T06:30:16;42.77;;;18.93;;
17283;SDS011;8760;52.248;20.952;2022-12-18T06:32:43;40.70;;;18.57;;
17283;SDS011;8760;52.248;20.952;2022-12-18T06:35:12;43.37;;;19.40;;
17283;SDS011;8760;52.248;20.952;2022-12-18T06:37:38;41.00;;;18.50;;
17283;SDS011;8760;52.248;20.952;2022-12-18T06:40:06;37.63;;;16.53;;
17283;SDS011;8760;52.248;20.952;2022-12-18T06:42:33;42.37;;;18.17;;
17283;SDS011;8760;52.248;20.952;2022-12-18T06:45:00;42.00;;;18.13;;
17283;SDS011;8760;52.248;20.952;2022-12-18T06:47:27;42.23;;;18.17;;
17283;SDS011;8760;52.248;20.952;2022-12-18T06:49:54;39.30;;;17.83;;
17283;SDS011;8760;52.248;20.952;2022-12-18T06:52:22;45.57;;;18.00;;
17283;SDS011;8760;52.248;20.952;2022-12-18T06:54:49;43.80;;;19.03;;
17283;SDS011;8760;52.248;20.952;2022-12-18T06:57:15;46.67;;;19.07;;
17283;SDS011;8760;52.248;20.952;2022-12-18T06:59:42;48.20;;;19.43;;
17283;SDS011;8760;52.248;20.952;2022-12-18T07:02:10;44.93;;;18.20;;
17283;SDS011;8760;52.248;20.952;2022-12-18T07:04:37;44.33;;;18.40;;
17283;SDS011;8760;52.248;20.952;2022-12-18T07:07:04;42.50;;;18.90;;
17283;SDS011;8760;52.248;20.952;2022-12-18T07:09:32;43.70;;;18.07;;
17283;SDS011;8760;52.248;20.952;2022-12-18T07:11:59;42.43;;;18.37;;
17283;SDS011;8760;52.248;20.952;2022-12-18T07:14:26;40.57;;;17.90;;
17283;SDS011;8760;52.248;20.952;2022-12-18T07:16:53;44.93;;;18.77;;
17283;SDS011;8760;52.248;20.952;2022-12-18T07:19:20;44.20;;;19.20;;
17283;SDS011;8760;52.248;20.952;2022-12-18T07:21:50;44.80;;;19.80;;
17283;SDS011;8760;52.248;20.952;2022-12-18T07:24:17;39.10;;;18.33;;
17283;SDS011;8760;52.248;20.952;2022-12-18T07:26:46;45.00;;;19.60;;
17283;SDS011;8760;52.248;20.952;2022-12-18T07:29:13;43.73;;;19.70;;
17283;SDS011;8760;52.248;20.952;2022-12-18T07:31:40;44.20;;;18.70;;
17283;SDS011;8760;52.248;20.952;2022-12-18T07:34:09;45.10;;;19.73;;
17283;SDS011;8760;52.248;20.952;2022-12-18T07:36:36;43.90;;;18.70;;
17283;SDS011;8760;52.248;20.952;2022-12-18T07:39:03;41.40;;;18.13;;
17283;SDS011;8760;52.248;20.952;2022-12-18T07:41:30;47.73;;;19.40;;
17283;SDS011;8760;52.248;20.952;2022-12-18T07:43:58;47.60;;;19.90;;
17283;SDS011;8760;52.248;20.952;2022-12-18T07:46:25;38.80;;;18.60;;
17283;SDS011;8760;52.248;20.952;2022-12-18T07:48:52;40.10;;;18.43;;
17283;SDS011;8760;52.248;20.952;2022-12-18T07:51:18;45.87;;;19.13;;
17283;SDS011;8760;52.248;20.952;2022-12-18T07:53:45;43.37;;;19.10;;
17283;SDS011;8760;52.248;20.952;2022-12-18T07:56:12;43.90;;;19.10;;
17283;SDS011;8760;52.248;20.952;2022-12-18T07:58:39;43.93;;;18.70;;
17283;SDS011;8760;52.248;20.952;2022-12-18T08:01:08;45.40;;;19.37;;
17283;SDS011;8760;52.248;20.952;2022-12-18T08:03:37;40.97;;;18.57;;
17283;SDS011;8760;52.248;20.952;2022-12-18T08:06:06;44.63;;;18.63;;
17283;SDS011;8760;52.248;20.952;2022-12-18T08:08:34;37.73;;;17.97;;
17283;SDS011;8760;52.248;20.952;2022-12-18T08:11:01;37.50;;;17.03;;
17283;SDS011;8760;52.248;20.952;2022-12-18T08:13:29;43.23;;;18.07;;
17283;SDS011;8760;52.248;20.952;2022-12-18T08:15:56;45.40;;;18.60;;
17283;SDS011;8760;52.248;20.952;2022-12-18T08:18:25;40.60;;;17.77;;
17283;SDS011;8760;52.248;20.952;2022-12-18T08:20:52;42.80;;;18.87;;
17283;SDS011;8760;52.248;20.952;2022-12-18T08:23:19;36.67;;;17.60;;
17283;SDS011;8760;52.248;20.952;2022-12-18T08:25:46;39.03;;;16.77;;
17283;SDS011;8760;52.248;20.952;2022-12-18T08:28:12;37.77;;;17.23;;
17283;SDS011;8760;52.248;20.952;2022-12-18T08:30:39;37.23;;;16.30;;
17283;SDS011;8760;52.248;20.952;2022-12-18T08:33:07;39.73;;;17.17;;
17283;SDS011;8760;52.248;20.952;2022-12-18T08:35:36;41.90;;;18.23;;
17283;SDS011;8760;52.248;20.952;2022-12-18T08:38:03;43.87;;;17.50;;
17283;SDS011;8760;52.248;20.952;2022-12-18T08:40:29;35.63;;;16.87;;
17283;SDS011;8760;52.248;20.952;2022-12-18T08:42:56;37.27;;;16.73;;
17283;SDS011;8760;52.248;20.952;2022-12-18T08:45:40;35.47;;;16.67;;
17283;SDS011;8760;52.248;20.952;2022-12-18T08:48:07;39.27;;;17.63;;
17283;SDS011;8760;52.248;20.952;2022-12-18T08:50:35;40.53;;;18.47;;
17283;SDS011;8760;52.248;20.952;2022-12-18T08:53:02;39.47;;;17.57;;
17283;SDS011;8760;52.248;20.952;2022-12-18T08:55:29;38.60;;;17.80;;
17283;SDS011;8760;52.248;20.952;2022-12-18T08:57:56;34.77;;;16.13;;
17283;SDS011;8760;52.248;20.952;2022-12-18T09:00:23;37.37;;;16.63;;
17283;SDS011;8760;52.248;20.952;2022-12-18T09:02:50;42.13;;;18.63;;
17283;SDS011;8760;52.248;20.952;2022-12-18T09:05:16;35.00;;;16.90;;
17283;SDS011;8760;52.248;20.952;2022-12-18T09:07:45;38.23;;;17.77;;
17283;SDS011;8760;52.248;20.952;2022-12-18T09:10:11;39.67;;;17.63;;
17283;SDS011;8760;52.248;20.952;2022-12-18T09:12:38;37.20;;;18.53;;
17283;SDS011;8760;52.248;20.952;2022-12-18T09:15:05;34.20;;;16.67;;
17283;SDS011;8760;52.248;20.952;2022-12-18T09:17:32;36.90;;;18.23;;
17283;SDS011;8760;52.248;20.952;2022-12-18T09:19:59;36.47;;;16.73;;
17283;SDS011;8760;52.248;20.952;2022-12-18T09:22:26;39.37;;;18.03;;
17283;SDS011;8760;52.248;20.952;2022-12-18T09:24:54;37.73;;;18.10;;
17283;SDS011;8760;52.248;20.952;2022-12-18T09:27:21;36.93;;;17.93;;
17283;SDS011;8760;52.248;20.952;2022-12-18T09:29:48;33.97;;;16.47;;
17283;SDS011;8760;52.248;20.952;2022-12-18T09:32:14;37.87;;;16.90;;
17283;SDS011;8760;52.248;20.952;2022-12-18T09:34:41;36.30;;;17.17;;
17283;SDS011;8760;52.248;20.952;2022-12-18T09:37:08;44.17;;;18.83;;
17283;SDS011;8760;52.248;20.952;2022-12-18T09:39:35;44.73;;;20.20;;
17283;SDS011;8760;52.248;20.952;2022-12-18T09:42:04;41.33;;;19.27;;
17283;SDS011;8760;52.248;20.952;2022-12-18T09:44:32;38.50;;;18.97;;
17283;SDS011;8760;52.248;20.952;2022-12-18T09:47:05;47.43;;;21.50;;
17283;SDS011;8760;52.248;20.952;2022-12-18T09:49:37;38.47;;;19.43;;
17283;SDS011;8760;52.248;20.952;2022-12-18T09:52:09;43.20;;;20.53;;
17283;SDS011;8760;52.248;20.952;2022-12-18T09:54:41;43.13;;;21.30;;
17283;SDS011;8760;52.248;20.952;2022-12-18T09:57:12;44.40;;;21.00;;
17283;SDS011;8760;52.248;20.952;2022-12-18T09:59:41;44.77;;;21.27;;
17283;SDS011;8760;52.248;20.952;2022-12-18T10:02:15;43.07;;;20.50;;
17283;SDS011;8760;52.248;20.952;2022-12-18T10:04:48;43.00;;;20.50;;
17283;SDS011;8760;52.248;20.952;2022-12-18T10:07:26;43.13;;;20.83;;
17283;SDS011;8760;52.248;20.952;2022-12-18T10:09:58;45.47;;;20.60;;
17283;SDS011;8760;52.248;20.952;2022-12-18T10:12:35;43.60;;;21.70;;
17283;SDS011;8760;52.248;20.952;2022-12-18T10:15:11;41.63;;;20.57;;
17283;SDS011;8760;52.248;20.952;2022-12-18T10:17:43;38.63;;;20.33;;
17283;SDS011;8760;52.248;20.952;2022-12-18T10:20:18;43.60;;;20.47;;
17283;SDS011;8760;52.248;20.952;2022-12-18T10:22:52;44.60;;;20.83;;
17283;SDS011;8760;52.248;20.952;2022-12-18T10:25:26;48.77;;;21.20;;
17283;SDS011;8760;52.248;20.952;2022-12-18T10:28:00;43.00;;;20.90;;
17283;SDS011;8760;52.248;20.952;2022-12-18T10:30:34;44.37;;;21.50;;
17283;SDS011;8760;52.248;20.952;2022-12-18T10:33:00;44.50;;;20.37;;
17283;SDS011;8760;52.248;20.952;2022-12-18T10:35:28;48.53;;;22.37;;
17283;SDS011;8760;52.248;20.952;2022-12-18T10:38:02;46.07;;;21.03;;
17283;SDS011;8760;52.248;20.952;2022-12-18T10:40:31;46.27;;;22.03;;
17283;SDS011;8760;52.248;20.952;2022-12-18T10:43:11;46.33;;;22.33;;
17283;SDS011;8760;52.248;20.952;2022-12-18T10:45:39;45.93;;;22.33;;
17283;SDS011;8760;52.248;20.952;2022-12-18T10:48:17;48.70;;;22.10;;
17283;SDS011;8760;52.248;20.952;2022-12-18T10:50:46;54.57;;;23.10;;
17283;SDS011;8760;52.248;20.952;2022-12-18T10:53:18;49.10;;;22.33;;
17283;SDS011;8760;52.248;20.952;2022-12-18T10:55:47;51.73;;;23.80;;
17283;SDS011;8760;52.248;20.952;2022-12-18T10:58:21;49.70;;;23.43;;
17283;SDS011;8760;52.248;20.952;2022-12-18T11:03:39;52.77;;;22.50;;
17283;SDS011;8760;52.248;20.952;2022-12-18T11:06:08;48.40;;;22.43;;
17283;SDS011;8760;52.248;20.952;2022-12-18T11:08:36;55.00;;;23.87;;
17283;SDS011;8760;52.248;20.952;2022-12-18T11:11:04;53.80;;;23.83;;
17283;SDS011;8760;52.248;20.952;2022-12-18T11:13:42;57.03;;;24.40;;
17283;SDS011;8760;52.248;20.952;2022-12-18T11:16:23;57.93;;;24.70;;
17283;SDS011;8760;52.248;20.952;2022-12-18T11:18:50;55.77;;;24.83;;
17283;SDS011;8760;52.248;20.952;2022-12-18T11:21:17;53.83;;;24.43;;
17283;SDS011;8760;52.248;20.952;2022-12-18T11:23:46;51.60;;;23.80;;
17283;SDS011;8760;52.248;20.952;2022-12-18T11:26:15;54.03;;;24.50;;
17283;SDS011;8760;52.248;20.952;2022-12-18T11:28:45;54.37;;;23.90;;
17283;SDS011;8760;52.248;20.952;2022-12-18T11:31:21;55.67;;;25.60;;
17283;SDS011;8760;52.248;20.952;2022-12-18T11:33:52;51.80;;;25.33;;
17283;SDS011;8760;52.248;20.952;2022-12-18T11:36:29;52.87;;;24.07;;
17283;SDS011;8760;52.248;20.952;2022-12-18T11:38:59;52.33;;;24.67;;
17283;SDS011;8760;52.248;20.952;2022-12-18T11:41:32;57.10;;;25.20;;
17283;SDS011;8760;52.248;20.952;2022-12-18T11:44:26;58.37;;;25.53;;
17283;SDS011;8760;52.248;20.952;2022-12-18T11:46:59;56.13;;;24.10;;
17283;SDS011;8760;52.248;20.952;2022-12-18T11:49:32;58.47;;;26.20;;
17283;SDS011;8760;52.248;20.952;2022-12-18T11:52:01;50.20;;;23.80;;
17283;SDS011;8760;52.248;20.952;2022-12-18T11:54:34;49.47;;;22.90;;
17283;SDS011;8760;52.248;20.952;2022-12-18T11:57:02;53.97;;;24.47;;
17283;SDS011;8760;52.248;20.952;2022-12-18T11:59:36;45.67;;;22.47;;
17283;SDS011;8760;52.248;20.952;2022-12-18T12:02:19;52.17;;;22.40;;
17283;SDS011;8760;52.248;20.952;2022-12-18T12:05:11;51.33;;;22.77;;
17283;SDS011;8760;52.248;20.952;2022-12-18T12:07:50;49.00;;;22.93;;
17283;SDS011;8760;52.248;20.952;2022-12-18T12:10:28;47.57;;;21.47;;
17283;SDS011;8760;52.248;20.952;2022-12-18T12:13:09;49.80;;;22.80;;
17283;SDS011;8760;52.248;20.952;2022-12-18T12:15:54;47.50;;;22.37;;
17283;SDS011;8760;52.248;20.952;2022-12-18T12:18:34;48.63;;;22.77;;
17283;SDS011;8760;52.248;20.952;2022-12-18T12:21:13;49.83;;;22.27;;
17283;SDS011;8760;52.248;20.952;2022-12-18T12:23:50;47.53;;;22.33;;
17283;SDS011;8760;52.248;20.952;2022-12-18T12:26:26;51.83;;;23.67;;
17283;SDS011;8760;52.248;20.952;2022-12-18T12:29:01;52.30;;;24.10;;
17283;SDS011;8760;52.248;20.952;2022-12-18T12:31:45;53.17;;;24.33;;
17283;SDS011;8760;52.248;20.952;2022-12-18T12:34:26;50.17;;;24.10;;
17283;SDS011;8760;52.248;20.952;2022-12-18T12:37:01;56.87;;;26.00;;
17283;SDS011;8760;52.248;20.952;2022-12-18T12:39:40;50.47;;;24.47;;
17283;SDS011;8760;52.248;20.952;2022-12-18T12:42:11;54.57;;;24.63;;
17283;SDS011;8760;52.248;20.952;2022-12-18T12:45:14;52.60;;;24.50;;
17283;SDS011;8760;52.248;20.952;2022-12-18T12:47:48;50.67;;;23.97;;
17283;SDS011;8760;52.248;20.952;2022-12-18T12:50:17;46.33;;;22.80;;
17283;SDS011;8760;52.248;20.952;2022-12-18T12:52:46;49.00;;;22.60;;
17283;SDS011;8760;52.248;20.952;2022-12-18T12:55:16;47.13;;;22.80;;
17283;SDS011;8760;52.248;20.952;2022-12-18T12:57:46;48.37;;;21.27;;
17283;SDS011;8760;52.248;20.952;2022-12-18T13:00:21;50.27;;;21.97;;
17283;SDS011;8760;52.248;20.952;2022-12-18T13:02:51;47.30;;;22.23;;
17283;SDS011;8760;52.248;20.952;2022-12-18T13:05:25;45.33;;;22.60;;
17283;SDS011;8760;52.248;20.952;2022-12-18T13:07:59;47.23;;;23.10;;
17283;SDS011;8760;52.248;20.952;2022-12-18T13:10:33;46.20;;;21.50;;
17283;SDS011;8760;52.248;20.952;2022-12-18T13:13:02;44.60;;;20.43;;
17283;SDS011;8760;52.248;20.952;2022-12-18T13:15:31;47.47;;;21.67;;
17283;SDS011;8760;52.248;20.952;2022-12-18T13:18:14;50.77;;;21.57;;
17283;SDS011;8760;52.248;20.952;2022-12-18T13:20:44;42.00;;;20.70;;
17283;SDS011;8760;52.248;20.952;2022-12-18T13:23:28;43.00;;;20.03;;
17283;SDS011;8760;52.248;20.952;2022-12-18T13:28:58;44.70;;;19.90;;
17283;SDS011;8760;52.248;20.952;2022-12-18T13:34:35;47.63;;;20.37;;
17283;SDS011;8760;52.248;20.952;2022-12-18T13:43:21;51.20;;;23.20;;
17283;SDS011;8760;52.248;20.952;2022-12-18T13:46:02;48.10;;;21.90;;
17283;SDS011;8760;52.248;20.952;2022-12-18T13:48:33;43.53;;;21.53;;
17283;SDS011;8760;52.248;20.952;2022-12-18T13:51:04;52.20;;;24.23;;
17283;SDS011;8760;52.248;20.952;2022-12-18T13:53:34;52.80;;;23.97;;
17283;SDS011;8760;52.248;20.952;2022-12-18T13:56:05;51.50;;;22.67;;
17283;SDS011;8760;52.248;20.952;2022-12-18T13:58:32;45.63;;;21.10;;
17283;SDS011;8760;52.248;20.952;2022-12-18T14:00:59;51.90;;;23.30;;
17283;SDS011;8760;52.248;20.952;2022-12-18T14:03:28;50.90;;;21.30;;
17283;SDS011;8760;52.248;20.952;2022-12-18T14:05:56;47.50;;;22.10;;
17283;SDS011;8760;52.248;20.952;2022-12-18T14:08:29;50.67;;;21.37;;
17283;SDS011;8760;52.248;20.952;2022-12-18T14:11:01;44.87;;;20.03;;
17283;SDS011;8760;52.248;20.952;2022-12-18T14:13:31;50.13;;;21.13;;
17283;SDS011;8760;52.248;20.952;2022-12-18T14:16:01;48.93;;;21.67;;
17283;SDS011;8760;52.248;20.952;2022-12-18T14:18:32;52.40;;;23.10;;
17283;SDS011;8760;52.248;20.952;2022-12-18T14:21:04;54.20;;;22.40;;
17283;SDS011;8760;52.248;20.952;2022-12-18T14:23:34;50.37;;;22.63;;
17283;SDS011;8760;52.248;20.952;2022-12-18T14:26:17;52.40;;;22.90;;
17283;SDS011;8760;52.248;20.952;2022-12-18T14:28:47;48.67;;;22.80;;
17283;SDS011;8760;52.248;20.952;2022-12-18T14:31:17;55.63;;;23.50;;
17283;SDS011;8760;52.248;20.952;2022-12-18T14:33:45;54.90;;;23.97;;
17283;SDS011;8760;52.248;20.952;2022-12-18T14:36:14;55.80;;;23.73;;
17283;SDS011;8760;52.248;20.952;2022-12-18T14:38:47;49.87;;;23.70;;
17283;SDS011;8760;52.248;20.952;2022-12-18T14:41:16;51.73;;;22.47;;
17283;SDS011;8760;52.248;20.952;2022-12-18T14:43:44;51.23;;;22.87;;
17283;SDS011;8760;52.248;20.952;2022-12-18T14:46:25;48.10;;;21.90;;
17283;SDS011;8760;52.248;20.952;2022-12-18T14:48:55;53.77;;;22.90;;
17283;SDS011;8760;52.248;20.952;2022-12-18T14:51:22;54.07;;;24.37;;
17283;SDS011;8760;52.248;20.952;2022-12-18T14:53:54;51.83;;;22.77;;
17283;SDS011;8760;52.248;20.952;2022-12-18T14:56:23;51.27;;;22.27;;